createdAt,value
2023-03-27T00:02:11.692Z,98282.84
2023-03-27T00:07:13.398Z,98277.94
2023-03-27T00:12:15.204Z,98271.38
2023-03-27T00:17:16.816Z,98267.34
2023-03-27T00:22:18.481Z,98278.22
2023-03-27T00:27:20.344Z,98282.41
2023-03-27T00:32:21.966Z,98269.88
2023-03-27T00:37:23.675Z,98289.16
2023-03-27T00:42:25.506Z,98285.06
2023-03-27T00:47:33.301Z,98282.56
2023-03-27T00:52:37.122Z,98270.88
2023-03-27T00:57:39.979Z,98278.28
2023-03-27T01:02:44.438Z,98273.19
2023-03-27T01:08:01.016Z,98272.28
2023-03-27T01:13:38.492Z,98279.69
2023-03-27T01:18:54.646Z,98269.69
2023-03-27T01:24:33.874Z,98271.44
2023-03-27T01:29:53.461Z,98268.16
2023-03-27T01:35:24.777Z,98268.06
2023-03-27T01:40:46.658Z,98250.41
2023-03-27T01:45:55.988Z,98246.19
2023-03-27T01:51:08.167Z,98236.97
2023-03-27T01:56:18.186Z,98235.13
2023-03-27T02:01:26.805Z,98230.06
2023-03-27T02:06:35.331Z,98233.56
2023-03-27T02:11:43.666Z,98229.50
2023-03-27T02:16:51.600Z,98228.66
2023-03-27T02:21:53.395Z,98223.81
2023-03-27T02:27:12.860Z,98224.75
2023-03-27T02:32:37.112Z,98205.59
2023-03-27T02:38:06.452Z,98207.97
2023-03-27T02:43:17.337Z,98199.69
2023-03-27T02:48:43.906Z,98193.16
2023-03-27T02:53:51.310Z,98209.13
2023-03-27T02:59:04.589Z,98209.91
2023-03-27T03:04:41.873Z,98198.22
2023-03-27T03:09:56.344Z,98193.25
2023-03-27T03:14:58.142Z,98185.81
2023-03-27T03:19:59.777Z,98180.84
2023-03-27T03:25:02.185Z,98176.69
2023-03-27T03:30:04.934Z,98180.91
2023-03-27T03:35:13.805Z,98181.03
2023-03-27T03:40:16.580Z,98183.66
2023-03-27T03:45:21.690Z,98186.03
2023-03-27T03:50:23.439Z,98191.19
2023-03-27T03:55:25.725Z,98187.00
2023-03-27T04:00:28.426Z,98189.50
2023-03-27T04:05:32.032Z,98190.41
2023-03-27T04:10:35.853Z,98212.28
2023-03-27T04:15:40.805Z,98216.41
2023-03-27T04:20:54.482Z,98220.59
2023-03-27T04:26:00.821Z,98222.41
2023-03-27T04:31:18.670Z,98229.06
2023-03-27T04:36:58.605Z,98220.66
2023-03-27T04:42:02.869Z,98225.75
2023-03-27T04:47:08.841Z,98217.34
2023-03-27T04:52:14.245Z,98218.13
2023-03-27T04:57:19.143Z,98249.84
2023-03-27T05:02:23.187Z,98256.56
2023-03-27T05:07:33.063Z,98259.06
2023-03-27T05:12:36.292Z,98264.97
2023-03-27T05:17:42.018Z,98260.03
2023-03-27T05:22:45.444Z,98270.94
2023-03-27T05:28:13.578Z,98275.09
2023-03-27T05:33:17.573Z,98286.81
2023-03-27T05:38:20.345Z,98291.91
2023-03-27T05:43:36.932Z,98301.03
2023-03-27T05:48:39.218Z,98315.28
2023-03-27T05:53:42.182Z,98311.09
2023-03-27T05:58:54.524Z,98321.09
2023-03-27T06:03:56.908Z,98312.75
2023-03-27T06:09:25.337Z,98324.34
2023-03-27T06:14:50.169Z,98317.66
2023-03-27T06:20:12.828Z,98322.66
2023-03-27T06:25:16.884Z,98326.06
2023-03-27T06:30:21.788Z,98325.91
2023-03-27T06:35:43.506Z,98326.03
2023-03-27T06:40:59.968Z,98325.06
2023-03-27T06:46:19.887Z,98335.34
2023-03-27T06:51:41.919Z,98342.84
2023-03-27T06:56:45.352Z,98356.97
2023-03-27T07:01:55.671Z,98352.88
2023-03-27T07:07:09.356Z,98366.25
2023-03-27T07:12:15.350Z,98368.75
2023-03-27T07:17:20.104Z,98374.66
2023-03-27T07:22:27.467Z,98376.28
2023-03-27T07:27:31.752Z,98386.31
2023-03-27T07:32:38.053Z,98390.38
2023-03-27T07:37:42.891Z,98394.50
2023-03-27T07:43:14.187Z,98395.41
2023-03-27T07:48:19.065Z,98404.59
2023-03-27T07:53:34.021Z,98417.03
2023-03-27T07:58:56.530Z,98422.06
2023-03-27T08:03:59.478Z,98418.75
2023-03-27T08:09:05.258Z,98429.56
2023-03-27T08:14:09.224Z,98427.06
2023-03-27T08:19:12.576Z,98427.03
2023-03-27T08:24:18.436Z,98448.72
2023-03-27T08:29:37.282Z,98447.06
2023-03-27T08:34:40.853Z,98462.06
2023-03-27T08:39:42.950Z,98467.91
2023-03-27T08:44:45.089Z,98466.16
2023-03-27T08:49:54.259Z,98462.75
2023-03-27T08:55:38.126Z,98478.59
2023-03-27T09:01:41.301Z,98476.03
2023-03-27T09:06:48.175Z,98481.00
2023-03-27T09:12:14.287Z,98483.88
2023-03-27T09:17:49.027Z,98501.59
2023-03-27T09:22:57.998Z,98526.75
2023-03-27T09:28:29.112Z,98542.69
2023-03-27T09:33:41.489Z,98562.13
2023-03-27T09:38:50.629Z,98593.81
2023-03-27T09:44:13.356Z,98608.69
2023-03-27T09:49:20.829Z,98632.84
2023-03-27T09:54:31.721Z,98630.97
2023-03-27T09:59:38.738Z,98649.94
2023-03-27T10:05:02.514Z,98664.66
2023-03-27T10:10:21.162Z,98687.81
2023-03-27T10:15:42.447Z,98702.41
2023-03-27T10:20:57.123Z,98717.44
2023-03-27T10:26:04.161Z,98753.81
2023-03-27T10:31:36.541Z,98769.19
2023-03-27T10:36:54.537Z,98791.41
2023-03-27T10:42:09.030Z,98817.59
2023-03-27T10:47:22.722Z,98832.41
2023-03-27T10:52:40.586Z,98854.69
2023-03-27T10:57:54.007Z,98869.25
2023-03-27T11:03:21.093Z,98889.84
2023-03-27T11:08:46.450Z,98915.50
2023-03-27T11:13:52.138Z,98935.09
2023-03-27T11:19:13.289Z,98951.00
2023-03-27T11:24:55.234Z,98986.81
2023-03-27T11:30:14.349Z,99003.31
2023-03-27T11:35:39.273Z,99021.63
2023-03-27T11:41:01.931Z,99038.88
2023-03-27T11:46:21.094Z,99053.81
2023-03-27T11:51:22.892Z,99073.50
2023-03-27T11:56:31.865Z,99096.84
2023-03-27T12:02:27.812Z,99110.09
2023-03-27T12:07:38.046Z,99115.56
2023-03-27T12:13:12.023Z,99136.84
2023-03-27T12:18:27.478Z,99134.63
2023-03-27T12:23:50.814Z,99174.47
2023-03-27T12:29:23.056Z,99184.47
2023-03-27T12:34:50.115Z,99178.69
2023-03-27T12:39:59.014Z,99188.22
2023-03-27T12:45:18.025Z,99177.88
2023-03-27T12:50:26.314Z,99185.59
2023-03-27T12:55:32.758Z,99183.44
2023-03-27T13:00:34.416Z,99173.97
2023-03-27T13:05:45.720Z,99183.66
2023-03-27T13:11:18.651Z,99189.19
2023-03-27T13:17:02.302Z,99186.34
2023-03-27T13:22:20.430Z,99190.19
2023-03-27T13:27:47.705Z,99185.31
2023-03-27T13:33:14.398Z,99195.28
2023-03-27T13:38:36.999Z,99179.75
2023-03-27T13:43:39.067Z,99198.47
2023-03-27T13:49:06.167Z,99228.63
2023-03-27T13:54:34.504Z,99222.69
2023-03-27T14:00:10.578Z,99217.78
2023-03-27T14:05:49.395Z,99204.91
2023-03-27T14:11:09.768Z,99211.13
2023-03-27T14:16:50.780Z,99221.13
2023-03-27T14:22:00.241Z,99239.84
2023-03-27T14:27:10.739Z,99233.13
2023-03-27T14:32:17.381Z,99221.44
2023-03-27T14:37:31.890Z,99269.59
2023-03-27T14:42:38.111Z,99266.06
2023-03-27T14:47:43.208Z,99255.94
2023-03-27T14:52:52.952Z,99275.56
2023-03-27T14:58:00.144Z,99285.97
2023-03-27T15:03:13.755Z,99304.75
2023-03-27T15:08:19.618Z,99306.56
2023-03-27T15:13:45.764Z,99305.47
2023-03-27T15:19:17.250Z,99316.22
2023-03-27T15:24:30.473Z,99326.47
2023-03-27T15:29:40.733Z,99353.72
2023-03-27T15:34:46.924Z,99349.41
2023-03-27T15:39:59.355Z,99368.34
2023-03-27T15:45:03.673Z,99359.81
2023-03-27T15:50:17.440Z,99375.66
2023-03-27T15:55:39.467Z,99389.06
2023-03-27T16:00:49.861Z,99394.81
2023-03-27T16:05:57.049Z,99398.03
2023-03-27T16:11:00.602Z,99403.50
2023-03-27T16:16:05.803Z,99419.94
2023-03-27T16:21:13.432Z,99427.97
2023-03-27T16:26:27.891Z,99440.44
2023-03-27T16:31:29.743Z,99449.25
2023-03-27T16:36:32.948Z,99464.88
2023-03-27T16:41:34.624Z,99489.81
2023-03-27T16:46:36.607Z,99501.78
2023-03-27T16:51:38.292Z,99508.34
2023-03-27T16:56:40.008Z,99514.28
2023-03-27T17:01:42.134Z,99525.09
2023-03-27T17:06:44.071Z,99547.34
2023-03-27T17:11:45.843Z,99548.22
2023-03-27T17:16:48.907Z,99550.56
2023-03-27T17:21:50.619Z,99566.31
2023-03-27T17:26:52.480Z,99574.50
2023-03-27T17:32:00.672Z,99589.66
2023-03-27T17:37:02.328Z,99604.34
2023-03-27T17:42:04.194Z,99620.34
2023-03-27T17:47:07.563Z,99628.09
2023-03-27T17:52:11.814Z,99638.38
2023-03-27T17:57:13.508Z,99642.34
2023-03-27T18:02:20.848Z,99644.34
2023-03-27T18:07:29.505Z,99650.81
2023-03-27T18:12:34.106Z,99662.19
2023-03-27T18:24:47.001Z,99696.03
2023-03-27T18:29:48.583Z,99710.81
2023-03-27T18:34:51.078Z,99707.72
2023-03-27T18:39:52.709Z,99715.09
2023-03-27T18:44:54.534Z,99721.78
2023-03-27T18:49:57.509Z,99723.94
2023-03-27T18:54:59.158Z,99730.81
2023-03-27T19:00:01.466Z,99741.50
2023-03-27T19:05:04.302Z,99748.94
2023-03-27T19:10:06.546Z,99754.63
2023-03-27T19:20:41.140Z,99756.97
2023-03-27T19:26:19.700Z,99762.84
2023-03-27T19:31:21.927Z,99768.25
2023-03-27T19:36:27.198Z,99764.88
2023-03-27T19:41:28.897Z,99772.38
2023-03-27T19:46:30.785Z,99774.75
2023-03-27T19:51:32.517Z,99784.88
2023-03-27T19:56:35.003Z,99775.56
2023-03-27T20:01:37.583Z,99773.63
2023-03-27T20:06:39.899Z,99783.59
2023-03-27T20:11:44.125Z,99775.78
2023-03-27T20:16:46.676Z,99778.03
2023-03-27T20:21:48.280Z,99778.03
2023-03-27T20:26:54.026Z,99782.91
2023-03-27T20:31:58.832Z,99793.69
2023-03-27T20:37:05.768Z,99802.91
2023-03-27T20:42:28.754Z,99794.19
2023-03-27T20:47:39.132Z,99798.03
2023-03-27T20:52:41.717Z,99800.50
2023-03-27T20:57:43.359Z,99788.75
2023-03-27T21:02:45.164Z,99783.44
2023-03-27T21:07:52.627Z,99786.53
2023-03-27T21:12:56.581Z,99807.63
2023-03-27T21:17:58.664Z,99803.56
2023-03-27T21:23:01.936Z,99800.97
2023-03-27T21:28:04.920Z,99804.34
2023-03-27T21:33:07.281Z,99815.16
2023-03-27T21:38:09.021Z,99818.22
2023-03-27T21:43:13.194Z,99824.78
2023-03-27T21:48:15.356Z,99826.00
2023-03-27T21:53:17.154Z,99837.03
2023-03-27T21:58:18.776Z,99831.88
2023-03-27T22:03:20.582Z,99847.00
2023-03-27T22:08:22.304Z,99840.31
2023-03-27T22:13:24.070Z,99840.84
2023-03-27T22:18:25.899Z,99829.94
2023-03-27T22:23:27.765Z,99846.53
2023-03-27T22:28:29.624Z,99834.78
2023-03-27T22:33:32.029Z,99848.78
2023-03-27T22:38:33.757Z,99857.81
2023-03-27T22:43:35.878Z,99872.84
2023-03-27T22:48:37.525Z,99871.06
2023-03-27T22:53:40.515Z,99875.81
2023-03-27T22:58:42.162Z,99883.19
2023-03-27T23:03:44.011Z,99883.06
2023-03-27T23:08:47.295Z,99895.47
2023-03-27T23:13:49.634Z,99903.72
2023-03-27T23:18:51.268Z,99905.16
2023-03-27T23:23:53.104Z,99899.03
2023-03-27T23:29:02.344Z,99907.25
2023-03-27T23:34:04.119Z,99915.66
2023-03-27T23:39:05.742Z,99910.34
2023-03-27T23:44:07.304Z,99906.13
2023-03-27T23:49:08.878Z,99914.84
2023-03-27T23:54:10.602Z,99919.88
2023-03-27T23:59:12.318Z,99927.31
